Thornton, West Virginia
Current Conditions -  °F | °C
As of 8:53 AM on Thursday 18 Dec 2014 (Local Time) from KCKB Reporting Station
Overcast Overcast  
Wind Chill: 17°   Ceiling: 2000
Heat Index: 27°   Visibility: 10mi
Dew Point: 19°   Wind: 10mph
Humidity: 72%   Direction: 300°WNW
Pressure: 30.21"   Gusts: NA
Location:  39.35°N, 79.94°W
Report Text: KCKB 181353Z 30009KT 10SM OVC020 M03/M07 A3021 RMK AO2 SLP239 T10281072
Loading
Personal Weather Stations






























Interactive Weather Map New forecast layout! Learn more

10-Day Weather Forecast

Advertisements
Track Severe Weather on mobile